sensor_id;sensor_type;location;lat;lon;timestamp;P1;durP1;ratioP1;P2;durP2;ratioP2
50605;SDS011;36557;53.572;10.170;2022-09-16T00:01:17;596.28;;;553.03;;
50605;SDS011;36557;53.572;10.170;2022-09-16T00:03:44;641.78;;;596.25;;
50605;SDS011;36557;53.572;10.170;2022-09-16T00:06:21;580.13;;;538.50;;
50605;SDS011;36557;53.572;10.170;2022-09-16T00:08:52;638.67;;;593.50;;
50605;SDS011;36557;53.572;10.170;2022-09-16T00:11:19;545.33;;;506.75;;
50605;SDS011;36557;53.572;10.170;2022-09-16T00:13:45;569.40;;;529.60;;
50605;SDS011;36557;53.572;10.170;2022-09-16T00:16:12;592.53;;;549.83;;
50605;SDS011;36557;53.572;10.170;2022-09-16T00:18:42;576.22;;;535.15;;
50605;SDS011;36557;53.572;10.170;2022-09-16T00:21:08;549.50;;;511.40;;
50605;SDS011;36557;53.572;10.170;2022-09-16T00:23:35;580.17;;;538.47;;
50605;SDS011;36557;53.572;10.170;2022-09-16T00:26:01;588.03;;;546.97;;
50605;SDS011;36557;53.572;10.170;2022-09-16T00:28:27;636.50;;;592.10;;
50605;SDS011;36557;53.572;10.170;2022-09-16T00:30:53;567.33;;;527.35;;
50605;SDS011;36557;53.572;10.170;2022-09-16T00:33:23;574.90;;;534.83;;
50605;SDS011;36557;53.572;10.170;2022-09-16T00:35:49;610.85;;;568.38;;
50605;SDS011;36557;53.572;10.170;2022-09-16T00:38:15;570.10;;;529.25;;
50605;SDS011;36557;53.572;10.170;2022-09-16T00:40:45;578.35;;;537.22;;
50605;SDS011;36557;53.572;10.170;2022-09-16T00:43:13;680.75;;;627.15;;
50605;SDS011;36557;53.572;10.170;2022-09-16T00:45:40;588.03;;;547.33;;
50605;SDS011;36557;53.572;10.170;2022-09-16T00:48:10;628.60;;;583.80;;
50605;SDS011;36557;53.572;10.170;2022-09-16T00:50:51;643.40;;;596.78;;
50605;SDS011;36557;53.572;10.170;2022-09-16T00:53:30;625.58;;;581.53;;
50605;SDS011;36557;53.572;10.170;2022-09-16T00:56:02;688.78;;;638.78;;
50605;SDS011;36557;53.572;10.170;2022-09-16T01:01:11;704.95;;;653.95;;
50605;SDS011;36557;53.572;10.170;2022-09-16T01:03:39;710.85;;;660.42;;
50605;SDS011;36557;53.572;10.170;2022-09-16T01:06:09;654.55;;;608.67;;
50605;SDS011;36557;53.572;10.170;2022-09-16T01:08:38;656.13;;;611.33;;
50605;SDS011;36557;53.572;10.170;2022-09-16T01:11:04;682.78;;;633.40;;
50605;SDS011;36557;53.572;10.170;2022-09-16T01:13:30;629.50;;;584.42;;
50605;SDS011;36557;53.572;10.170;2022-09-16T01:16:14;569.20;;;529.65;;
50605;SDS011;36557;53.572;10.170;2022-09-16T01:22:01;599.25;;;556.47;;
50605;SDS011;36557;53.572;10.170;2022-09-16T01:25:01;620.30;;;577.42;;
50605;SDS011;36557;53.572;10.170;2022-09-16T01:33:22;606.45;;;562.78;;
50605;SDS011;36557;53.572;10.170;2022-09-16T01:41:01;603.35;;;560.78;;
50605;SDS011;36557;53.572;10.170;2022-09-16T01:46:21;577.92;;;534.05;;
50605;SDS011;36557;53.572;10.170;2022-09-16T01:49:01;585.28;;;543.17;;
50605;SDS011;36557;53.572;10.170;2022-09-16T01:51:34;577.33;;;534.53;;
50605;SDS011;36557;53.572;10.170;2022-09-16T01:57:22;562.75;;;523.13;;
50605;SDS011;36557;53.572;10.170;2022-09-16T02:02:15;614.85;;;570.22;;
50605;SDS011;36557;53.572;10.170;2022-09-16T02:04:48;593.33;;;549.97;;
50605;SDS011;36557;53.572;10.170;2022-09-16T02:07:18;585.42;;;542.63;;
50605;SDS011;36557;53.572;10.170;2022-09-16T02:09:53;614.20;;;569.28;;
50605;SDS011;36557;53.572;10.170;2022-09-16T02:12:24;630.22;;;583.72;;
50605;SDS011;36557;53.572;10.170;2022-09-16T02:14:54;560.70;;;519.85;;
50605;SDS011;36557;53.572;10.170;2022-09-16T02:17:27;592.13;;;549.03;;
50605;SDS011;36557;53.572;10.170;2022-09-16T02:22:38;644.00;;;598.20;;
50605;SDS011;36557;53.572;10.170;2022-09-16T02:25:13;591.60;;;548.75;;
50605;SDS011;36557;53.572;10.170;2022-09-16T02:27:41;560.58;;;518.15;;
50605;SDS011;36557;53.572;10.170;2022-09-16T02:30:10;550.05;;;509.63;;
50605;SDS011;36557;53.572;10.170;2022-09-16T02:32:42;550.90;;;509.58;;
50605;SDS011;36557;53.572;10.170;2022-09-16T02:35:13;556.58;;;516.00;;
50605;SDS011;36557;53.572;10.170;2022-09-16T02:37:47;568.65;;;526.40;;
50605;SDS011;36557;53.572;10.170;2022-09-16T02:40:21;586.78;;;542.20;;
50605;SDS011;36557;53.572;10.170;2022-09-16T02:42:57;542.13;;;501.58;;
50605;SDS011;36557;53.572;10.170;2022-09-16T02:45:25;583.63;;;541.60;;
50605;SDS011;36557;53.572;10.170;2022-09-16T02:48:04;622.85;;;578.42;;
50605;SDS011;36557;53.572;10.170;2022-09-16T02:50:51;556.50;;;517.72;;
50605;SDS011;36557;53.572;10.170;2022-09-16T02:53:35;640.30;;;594.83;;
50605;SDS011;36557;53.572;10.170;2022-09-16T02:56:14;585.30;;;545.13;;
50605;SDS011;36557;53.572;10.170;2022-09-16T02:58:51;634.63;;;588.67;;
50605;SDS011;36557;53.572;10.170;2022-09-16T03:01:17;635.78;;;590.80;;
50605;SDS011;36557;53.572;10.170;2022-09-16T03:03:45;551.22;;;513.42;;
50605;SDS011;36557;53.572;10.170;2022-09-16T03:08:37;585.03;;;544.13;;
50605;SDS011;36557;53.572;10.170;2022-09-16T03:11:08;602.65;;;558.80;;
50605;SDS011;36557;53.572;10.170;2022-09-16T03:13:46;614.88;;;570.88;;
50605;SDS011;36557;53.572;10.170;2022-09-16T03:16:30;585.40;;;544.08;;
50605;SDS011;36557;53.572;10.170;2022-09-16T03:21:50;628.40;;;582.90;;
50605;SDS011;36557;53.572;10.170;2022-09-16T03:27:15;597.15;;;554.92;;
50605;SDS011;36557;53.572;10.170;2022-09-16T03:29:56;570.35;;;530.00;;
50605;SDS011;36557;53.572;10.170;2022-09-16T03:32:34;569.45;;;527.97;;
50605;SDS011;36557;53.572;10.170;2022-09-16T03:35:08;584.58;;;543.10;;
50605;SDS011;36557;53.572;10.170;2022-09-16T03:37:40;605.65;;;561.55;;
50605;SDS011;36557;53.572;10.170;2022-09-16T03:40:09;565.67;;;525.25;;
50605;SDS011;36557;53.572;10.170;2022-09-16T03:42:41;591.40;;;550.13;;
50605;SDS011;36557;53.572;10.170;2022-09-16T03:45:18;565.75;;;526.17;;
50605;SDS011;36557;53.572;10.170;2022-09-16T03:47:46;571.33;;;530.60;;
50605;SDS011;36557;53.572;10.170;2022-09-16T03:50:14;569.63;;;528.42;;
50605;SDS011;36557;53.572;10.170;2022-09-16T03:52:40;545.95;;;506.98;;
50605;SDS011;36557;53.572;10.170;2022-09-16T03:55:06;568.30;;;527.58;;
50605;SDS011;36557;53.572;10.170;2022-09-16T03:57:32;578.45;;;536.15;;
50605;SDS011;36557;53.572;10.170;2022-09-16T03:59:58;605.33;;;561.15;;
50605;SDS011;36557;53.572;10.170;2022-09-16T04:02:24;586.60;;;543.78;;
50605;SDS011;36557;53.572;10.170;2022-09-16T04:04:50;556.88;;;517.45;;
50605;SDS011;36557;53.572;10.170;2022-09-16T04:07:16;580.33;;;539.78;;
50605;SDS011;36557;53.572;10.170;2022-09-16T04:09:42;554.38;;;515.22;;
50605;SDS011;36557;53.572;10.170;2022-09-16T04:12:08;567.08;;;527.28;;
50605;SDS011;36557;53.572;10.170;2022-09-16T04:14:34;570.03;;;529.65;;
50605;SDS011;36557;53.572;10.170;2022-09-16T04:17:00;591.22;;;549.85;;
50605;SDS011;36557;53.572;10.170;2022-09-16T04:19:26;566.95;;;527.33;;
50605;SDS011;36557;53.572;10.170;2022-09-16T04:21:52;589.85;;;547.35;;
50605;SDS011;36557;53.572;10.170;2022-09-16T04:24:18;584.17;;;543.30;;
50605;SDS011;36557;53.572;10.170;2022-09-16T04:26:44;576.33;;;536.20;;
50605;SDS011;36557;53.572;10.170;2022-09-16T04:29:10;579.50;;;537.60;;
50605;SDS011;36557;53.572;10.170;2022-09-16T04:31:36;573.88;;;532.00;;
50605;SDS011;36557;53.572;10.170;2022-09-16T04:34:02;545.60;;;506.13;;
50605;SDS011;36557;53.572;10.170;2022-09-16T04:36:28;564.65;;;523.38;;
50605;SDS011;36557;53.572;10.170;2022-09-16T04:38:54;587.63;;;545.25;;
50605;SDS011;36557;53.572;10.170;2022-09-16T04:41:20;563.63;;;521.47;;
50605;SDS011;36557;53.572;10.170;2022-09-16T04:43:51;529.33;;;491.23;;
50605;SDS011;36557;53.572;10.170;2022-09-16T04:46:18;522.83;;;485.08;;
50605;SDS011;36557;53.572;10.170;2022-09-16T04:48:47;609.95;;;566.33;;
50605;SDS011;36557;53.572;10.170;2022-09-16T04:51:14;585.70;;;544.03;;
50605;SDS011;36557;53.572;10.170;2022-09-16T04:53:41;549.72;;;510.27;;
50605;SDS011;36557;53.572;10.170;2022-09-16T04:56:11;564.20;;;523.42;;
50605;SDS011;36557;53.572;10.170;2022-09-16T04:58:40;645.35;;;599.08;;
50605;SDS011;36557;53.572;10.170;2022-09-16T05:01:11;556.22;;;516.60;;
50605;SDS011;36557;53.572;10.170;2022-09-16T05:03:39;571.42;;;531.58;;
50605;SDS011;36557;53.572;10.170;2022-09-16T05:06:10;645.35;;;600.45;;
50605;SDS011;36557;53.572;10.170;2022-09-16T05:08:40;606.55;;;563.92;;
50605;SDS011;36557;53.572;10.170;2022-09-16T05:11:16;562.60;;;522.83;;
50605;SDS011;36557;53.572;10.170;2022-09-16T05:13:49;536.58;;;500.58;;
50605;SDS011;36557;53.572;10.170;2022-09-16T05:16:16;631.67;;;588.97;;
50605;SDS011;36557;53.572;10.170;2022-09-16T05:18:44;585.28;;;543.53;;
50605;SDS011;36557;53.572;10.170;2022-09-16T05:21:12;629.92;;;583.97;;
50605;SDS011;36557;53.572;10.170;2022-09-16T05:23:39;657.00;;;611.13;;
50605;SDS011;36557;53.572;10.170;2022-09-16T05:26:07;609.80;;;567.47;;
50605;SDS011;36557;53.572;10.170;2022-09-16T05:28:34;624.30;;;580.83;;
50605;SDS011;36557;53.572;10.170;2022-09-16T05:31:10;587.28;;;547.30;;
50605;SDS011;36557;53.572;10.170;2022-09-16T05:33:42;606.95;;;566.72;;
50605;SDS011;36557;53.572;10.170;2022-09-16T05:36:11;627.88;;;582.47;;
50605;SDS011;36557;53.572;10.170;2022-09-16T05:38:38;560.60;;;520.60;;
50605;SDS011;36557;53.572;10.170;2022-09-16T05:41:04;714.90;;;653.55;;
50605;SDS011;36557;53.572;10.170;2022-09-16T05:43:30;543.67;;;506.50;;
50605;SDS011;36557;53.572;10.170;2022-09-16T05:45:57;580.65;;;541.20;;
50605;SDS011;36557;53.572;10.170;2022-09-16T05:48:23;606.08;;;564.45;;
50605;SDS011;36557;53.572;10.170;2022-09-16T05:50:56;658.67;;;612.22;;
50605;SDS011;36557;53.572;10.170;2022-09-16T05:53:27;649.33;;;604.58;;
50605;SDS011;36557;53.572;10.170;2022-09-16T05:55:57;573.78;;;535.20;;
50605;SDS011;36557;53.572;10.170;2022-09-16T05:58:28;570.40;;;531.40;;
50605;SDS011;36557;53.572;10.170;2022-09-16T06:01:03;584.50;;;543.60;;
50605;SDS011;36557;53.572;10.170;2022-09-16T06:03:30;624.65;;;581.67;;
50605;SDS011;36557;53.572;10.170;2022-09-16T06:06:30;628.88;;;585.53;;
50605;SDS011;36557;53.572;10.170;2022-09-16T06:09:16;560.30;;;520.08;;
50605;SDS011;36557;53.572;10.170;2022-09-16T06:11:47;580.22;;;539.58;;
50605;SDS011;36557;53.572;10.170;2022-09-16T06:14:15;569.95;;;528.60;;
50605;SDS011;36557;53.572;10.170;2022-09-16T06:16:42;530.03;;;492.98;;
50605;SDS011;36557;53.572;10.170;2022-09-16T06:19:12;634.40;;;590.63;;
50605;SDS011;36557;53.572;10.170;2022-09-16T06:21:40;591.78;;;551.30;;
50605;SDS011;36557;53.572;10.170;2022-09-16T06:24:07;614.35;;;570.70;;
50605;SDS011;36557;53.572;10.170;2022-09-16T06:26:34;624.15;;;580.13;;
50605;SDS011;36557;53.572;10.170;2022-09-16T06:29:02;678.03;;;630.63;;
50605;SDS011;36557;53.572;10.170;2022-09-16T06:31:30;626.95;;;584.55;;
50605;SDS011;36557;53.572;10.170;2022-09-16T06:33:57;628.45;;;583.05;;
50605;SDS011;36557;53.572;10.170;2022-09-16T06:36:24;672.92;;;625.42;;
50605;SDS011;36557;53.572;10.170;2022-09-16T06:38:52;638.15;;;593.78;;
50605;SDS011;36557;53.572;10.170;2022-09-16T06:41:19;666.13;;;619.95;;
50605;SDS011;36557;53.572;10.170;2022-09-16T06:43:45;667.97;;;621.55;;
50605;SDS011;36557;53.572;10.170;2022-09-16T06:46:13;627.05;;;582.88;;
50605;SDS011;36557;53.572;10.170;2022-09-16T06:48:41;658.83;;;610.15;;
50605;SDS011;36557;53.572;10.170;2022-09-16T06:51:13;654.83;;;605.65;;
50605;SDS011;36557;53.572;10.170;2022-09-16T06:53:40;631.55;;;585.10;;
50605;SDS011;36557;53.572;10.170;2022-09-16T06:56:08;650.72;;;601.15;;
50605;SDS011;36557;53.572;10.170;2022-09-16T06:58:36;700.90;;;645.47;;
50605;SDS011;36557;53.572;10.170;2022-09-16T07:01:04;629.70;;;583.40;;
50605;SDS011;36557;53.572;10.170;2022-09-16T07:03:38;663.58;;;615.13;;
50605;SDS011;36557;53.572;10.170;2022-09-16T07:06:05;706.25;;;652.45;;
50605;SDS011;36557;53.572;10.170;2022-09-16T07:08:32;733.15;;;673.88;;
50605;SDS011;36557;53.572;10.170;2022-09-16T07:10:59;696.47;;;643.10;;
50605;SDS011;36557;53.572;10.170;2022-09-16T07:13:25;731.40;;;670.72;;
50605;SDS011;36557;53.572;10.170;2022-09-16T07:15:51;752.85;;;688.88;;
50605;SDS011;36557;53.572;10.170;2022-09-16T07:18:17;767.03;;;700.50;;
50605;SDS011;36557;53.572;10.170;2022-09-16T07:20:43;761.63;;;699.45;;
50605;SDS011;36557;53.572;10.170;2022-09-16T07:23:09;768.97;;;702.63;;
50605;SDS011;36557;53.572;10.170;2022-09-16T07:25:35;784.55;;;717.92;;
50605;SDS011;36557;53.572;10.170;2022-09-16T07:28:00;788.47;;;724.65;;
50605;SDS011;36557;53.572;10.170;2022-09-16T07:30:27;769.10;;;704.55;;
50605;SDS011;36557;53.572;10.170;2022-09-16T07:32:55;763.13;;;699.10;;
50605;SDS011;36557;53.572;10.170;2022-09-16T07:35:21;800.10;;;735.45;;
50605;SDS011;36557;53.572;10.170;2022-09-16T07:37:47;794.28;;;727.28;;
50605;SDS011;36557;53.572;10.170;2022-09-16T07:40:12;754.15;;;693.03;;
50605;SDS011;36557;53.572;10.170;2022-09-16T07:42:38;787.30;;;723.25;;
50605;SDS011;36557;53.572;10.170;2022-09-16T07:45:04;737.58;;;677.45;;
50605;SDS011;36557;53.572;10.170;2022-09-16T07:47:31;746.53;;;686.83;;
50605;SDS011;36557;53.572;10.170;2022-09-16T07:49:57;752.88;;;692.35;;
50605;SDS011;36557;53.572;10.170;2022-09-16T07:52:23;691.58;;;635.85;;
50605;SDS011;36557;53.572;10.170;2022-09-16T07:54:56;730.75;;;675.38;;
50605;SDS011;36557;53.572;10.170;2022-09-16T07:57:22;718.55;;;660.67;;
50605;SDS011;36557;53.572;10.170;2022-09-16T07:59:48;778.90;;;717.72;;
50605;SDS011;36557;53.572;10.170;2022-09-16T08:02:14;724.90;;;667.70;;
50605;SDS011;36557;53.572;10.170;2022-09-16T08:04:41;680.28;;;627.38;;
50605;SDS011;36557;53.572;10.170;2022-09-16T08:07:07;683.22;;;631.72;;
50605;SDS011;36557;53.572;10.170;2022-09-16T08:09:33;700.67;;;647.03;;
50605;SDS011;36557;53.572;10.170;2022-09-16T08:12:01;711.38;;;657.45;;
50605;SDS011;36557;53.572;10.170;2022-09-16T08:14:28;764.50;;;682.13;;
50605;SDS011;36557;53.572;10.170;2022-09-16T08:16:54;645.63;;;596.80;;
50605;SDS011;36557;53.572;10.170;2022-09-16T08:19:19;654.90;;;608.38;;
50605;SDS011;36557;53.572;10.170;2022-09-16T08:21:47;665.35;;;617.13;;
50605;SDS011;36557;53.572;10.170;2022-09-16T08:24:13;664.78;;;615.97;;
50605;SDS011;36557;53.572;10.170;2022-09-16T08:26:38;678.75;;;628.22;;
50605;SDS011;36557;53.572;10.170;2022-09-16T08:29:04;601.67;;;558.22;;
50605;SDS011;36557;53.572;10.170;2022-09-16T08:31:31;825.15;;;663.47;;
50605;SDS011;36557;53.572;10.170;2022-09-16T08:33:57;615.72;;;570.10;;
50605;SDS011;36557;53.572;10.170;2022-09-16T08:36:23;611.28;;;566.92;;
50605;SDS011;36557;53.572;10.170;2022-09-16T08:38:50;678.63;;;628.60;;
50605;SDS011;36557;53.572;10.170;2022-09-16T08:49:56;585.10;;;541.30;;
50605;SDS011;36557;53.572;10.170;2022-09-16T08:52:31;746.35;;;673.58;;
50605;SDS011;36557;53.572;10.170;2022-09-16T08:57:27;662.30;;;612.60;;
50605;SDS011;36557;53.572;10.170;2022-09-16T09:00:04;625.33;;;579.15;;
50605;SDS011;36557;53.572;10.170;2022-09-16T09:05:28;602.80;;;559.22;;
50605;SDS011;36557;53.572;10.170;2022-09-16T09:22:02;644.38;;;598.08;;
50605;SDS011;36557;53.572;10.170;2022-09-16T09:27:35;693.50;;;642.35;;
50605;SDS011;36557;53.572;10.170;2022-09-16T09:30:22;628.17;;;582.33;;
50605;SDS011;36557;53.572;10.170;2022-09-16T09:40:50;679.03;;;629.00;;
50605;SDS011;36557;53.572;10.170;2022-09-16T09:46:24;642.30;;;595.35;;
50605;SDS011;36557;53.572;10.170;2022-09-16T09:48:56;610.20;;;566.08;;
50605;SDS011;36557;53.572;10.170;2022-09-16T09:51:34;626.22;;;581.28;;
50605;SDS011;36557;53.572;10.170;2022-09-16T10:02:18;685.75;;;634.50;;
50605;SDS011;36557;53.572;10.170;2022-09-16T10:04:45;652.05;;;604.35;;
50605;SDS011;36557;53.572;10.170;2022-09-16T10:07:12;676.55;;;626.58;;
50605;SDS011;36557;53.572;10.170;2022-09-16T10:09:47;725.83;;;670.70;;
50605;SDS011;36557;53.572;10.170;2022-09-16T10:12:27;686.58;;;634.95;;
50605;SDS011;36557;53.572;10.170;2022-09-16T10:14:53;716.30;;;662.05;;
50605;SDS011;36557;53.572;10.170;2022-09-16T10:17:18;757.33;;;698.80;;
50605;SDS011;36557;53.572;10.170;2022-09-16T10:22:28;713.67;;;656.58;;
50605;SDS011;36557;53.572;10.170;2022-09-16T10:25:20;698.75;;;644.10;;
50605;SDS011;36557;53.572;10.170;2022-09-16T10:27:54;702.38;;;647.47;;
50605;SDS011;36557;53.572;10.170;2022-09-16T10:30:24;755.35;;;697.88;;
50605;SDS011;36557;53.572;10.170;2022-09-16T10:32:53;694.65;;;640.92;;
50605;SDS011;36557;53.572;10.170;2022-09-16T10:35:38;701.55;;;646.88;;
50605;SDS011;36557;53.572;10.170;2022-09-16T10:38:15;742.75;;;685.70;;
50605;SDS011;36557;53.572;10.170;2022-09-16T10:40:51;718.97;;;664.30;;
50605;SDS011;36557;53.572;10.170;2022-09-16T10:43:17;731.25;;;673.30;;
50605;SDS011;36557;53.572;10.170;2022-09-16T10:45:44;769.60;;;698.67;;
50605;SDS011;36557;53.572;10.170;2022-09-16T10:48:15;769.85;;;692.90;;
50605;SDS011;36557;53.572;10.170;2022-09-16T10:50:53;727.03;;;670.35;;
50605;SDS011;36557;53.572;10.170;2022-09-16T10:55:58;697.13;;;643.10;;
50605;SDS011;36557;53.572;10.170;2022-09-16T10:58:29;725.97;;;668.10;;
50605;SDS011;36557;53.572;10.170;2022-09-16T11:04:02;719.53;;;661.78;;
50605;SDS011;36557;53.572;10.170;2022-09-16T11:06:54;707.40;;;653.80;;
50605;SDS011;36557;53.572;10.170;2022-09-16T11:20:35;706.05;;;648.78;;
50605;SDS011;36557;53.572;10.170;2022-09-16T11:45:38;720.85;;;666.75;;
50605;SDS011;36557;53.572;10.170;2022-09-16T11:50:59;671.15;;;620.83;;
50605;SDS011;36557;53.572;10.170;2022-09-16T11:55:55;700.40;;;647.03;;
50605;SDS011;36557;53.572;10.170;2022-09-16T12:01:52;724.38;;;669.35;;
50605;SDS011;36557;53.572;10.170;2022-09-16T12:04:11;735.50;;;678.83;;
50605;SDS011;36557;53.572;10.170;2022-09-16T12:07:21;663.47;;;613.20;;
50605;SDS011;36557;53.572;10.170;2022-09-16T12:09:58;672.53;;;620.95;;
50605;SDS011;36557;53.572;10.170;2022-09-16T12:12:36;714.33;;;657.40;;
50605;SDS011;36557;53.572;10.170;2022-09-16T12:15:06;711.13;;;656.03;;
50605;SDS011;36557;53.572;10.170;2022-09-16T12:17:41;679.28;;;625.15;;
50605;SDS011;36557;53.572;10.170;2022-09-16T12:20:56;667.97;;;616.33;;
50605;SDS011;36557;53.572;10.170;2022-09-16T12:23:21;666.78;;;615.03;;
50605;SDS011;36557;53.572;10.170;2022-09-16T12:28:53;676.92;;;624.30;;
50605;SDS011;36557;53.572;10.170;2022-09-16T12:31:33;679.75;;;625.90;;
50605;SDS011;36557;53.572;10.170;2022-09-16T12:36:33;847.60;;;724.00;;
50605;SDS011;36557;53.572;10.170;2022-09-16T12:39:02;817.08;;;744.42;;
50605;SDS011;36557;53.572;10.170;2022-09-16T12:46:56;697.45;;;645.42;;
50605;SDS011;36557;53.572;10.170;2022-09-16T12:58:25;719.92;;;667.03;;
50605;SDS011;36557;53.572;10.170;2022-09-16T13:03:38;715.05;;;661.72;;
50605;SDS011;36557;53.572;10.170;2022-09-16T13:06:15;744.33;;;689.42;;
50605;SDS011;36557;53.572;10.170;2022-09-16T13:08:57;748.70;;;690.28;;
50605;SDS011;36557;53.572;10.170;2022-09-16T13:11:58;688.22;;;635.83;;
50605;SDS011;36557;53.572;10.170;2022-09-16T13:14:31;726.63;;;671.58;;
50605;SDS011;36557;53.572;10.170;2022-09-16T13:17:01;748.10;;;690.90;;
50605;SDS011;36557;53.572;10.170;2022-09-16T13:19:36;721.13;;;665.03;;
50605;SDS011;36557;53.572;10.170;2022-09-16T13:22:13;730.55;;;678.25;;
50605;SDS011;36557;53.572;10.170;2022-09-16T13:25:00;721.00;;;668.80;;
50605;SDS011;36557;53.572;10.170;2022-09-16T13:27:32;848.78;;;766.65;;
50605;SDS011;36557;53.572;10.170;2022-09-16T13:30:43;710.30;;;654.95;;
50605;SDS011;36557;53.572;10.170;2022-09-16T13:35:41;641.30;;;594.17;;
50605;SDS011;36557;53.572;10.170;2022-09-16T13:40:56;690.15;;;642.00;;
50605;SDS011;36557;53.572;10.170;2022-09-16T13:46:03;685.95;;;638.10;;
50605;SDS011;36557;53.572;10.170;2022-09-16T13:48:34;700.05;;;648.45;;
50605;SDS011;36557;53.572;10.170;2022-09-16T13:51:15;692.38;;;641.33;;
50605;SDS011;36557;53.572;10.170;2022-09-16T13:53:49;702.55;;;648.05;;
50605;SDS011;36557;53.572;10.170;2022-09-16T14:09:59;614.08;;;568.00;;
50605;SDS011;36557;53.572;10.170;2022-09-16T14:15:21;661.88;;;585.90;;
50605;SDS011;36557;53.572;10.170;2022-09-16T14:17:48;674.95;;;622.83;;
50605;SDS011;36557;53.572;10.170;2022-09-16T14:20:19;612.25;;;566.70;;
50605;SDS011;36557;53.572;10.170;2022-09-16T14:22:47;611.78;;;566.13;;
50605;SDS011;36557;53.572;10.170;2022-09-16T14:25:32;703.85;;;648.60;;
50605;SDS011;36557;53.572;10.170;2022-09-16T14:31:00;624.67;;;578.53;;
50605;SDS011;36557;53.572;10.170;2022-09-16T14:33:30;609.08;;;563.35;;
50605;SDS011;36557;53.572;10.170;2022-09-16T14:36:09;558.88;;;518.80;;
50605;SDS011;36557;53.572;10.170;2022-09-16T14:38:43;590.45;;;547.15;;
50605;SDS011;36557;53.572;10.170;2022-09-16T14:41:18;587.00;;;544.35;;
50605;SDS011;36557;53.572;10.170;2022-09-16T14:43:53;617.72;;;569.42;;
50605;SDS011;36557;53.572;10.170;2022-09-16T14:46:24;686.92;;;632.75;;
50605;SDS011;36557;53.572;10.170;2022-09-16T14:48:50;601.22;;;555.88;;
50605;SDS011;36557;53.572;10.170;2022-09-16T14:51:20;536.95;;;498.88;;
50605;SDS011;36557;53.572;10.170;2022-09-16T14:53:55;531.05;;;494.08;;
50605;SDS011;36557;53.572;10.170;2022-09-16T14:56:22;539.45;;;501.40;;
50605;SDS011;36557;53.572;10.170;2022-09-16T14:58:49;559.53;;;519.17;;
50605;SDS011;36557;53.572;10.170;2022-09-16T15:01:21;577.35;;;534.28;;
50605;SDS011;36557;53.572;10.170;2022-09-16T15:04:03;563.00;;;522.03;;
50605;SDS011;36557;53.572;10.170;2022-09-16T15:06:38;547.58;;;507.33;;
50605;SDS011;36557;53.572;10.170;2022-09-16T15:09:16;553.72;;;510.80;;
50605;SDS011;36557;53.572;10.170;2022-09-16T15:11:52;634.72;;;588.00;;
50605;SDS011;36557;53.572;10.170;2022-09-16T15:14:20;483.85;;;453.00;;
50605;SDS011;36557;53.572;10.170;2022-09-16T15:16:50;532.25;;;496.90;;
50605;SDS011;36557;53.572;10.170;2022-09-16T15:19:36;489.27;;;458.13;;
50605;SDS011;36557;53.572;10.170;2022-09-16T15:22:05;607.20;;;565.95;;
50605;SDS011;36557;53.572;10.170;2022-09-16T15:24:33;490.33;;;459.42;;
50605;SDS011;36557;53.572;10.170;2022-09-16T15:27:04;653.58;;;600.22;;
50605;SDS011;36557;53.572;10.170;2022-09-16T15:29:31;483.80;;;454.55;;
50605;SDS011;36557;53.572;10.170;2022-09-16T15:32:06;675.67;;;612.75;;
50605;SDS011;36557;53.572;10.170;2022-09-16T15:34:43;550.55;;;514.80;;
50605;SDS011;36557;53.572;10.170;2022-09-16T15:37:26;570.72;;;534.45;;
50605;SDS011;36557;53.572;10.170;2022-09-16T15:40:06;570.65;;;533.60;;
50605;SDS011;36557;53.572;10.170;2022-09-16T15:42:44;607.83;;;566.53;;
50605;SDS011;36557;53.572;10.170;2022-09-16T15:45:16;652.10;;;605.00;;
50605;SDS011;36557;53.572;10.170;2022-09-16T15:47:57;716.65;;;660.60;;
50605;SDS011;36557;53.572;10.170;2022-09-16T15:50:27;700.08;;;648.78;;
50605;SDS011;36557;53.572;10.170;2022-09-16T16:03:19;796.67;;;733.83;;
50605;SDS011;36557;53.572;10.170;2022-09-16T16:05:50;743.72;;;685.90;;
50605;SDS011;36557;53.572;10.170;2022-09-16T16:08:51;787.78;;;730.88;;
50605;SDS011;36557;53.572;10.170;2022-09-16T16:11:17;747.50;;;690.72;;
50605;SDS011;36557;53.572;10.170;2022-09-16T16:13:44;724.13;;;671.15;;
50605;SDS011;36557;53.572;10.170;2022-09-16T16:16:10;728.65;;;674.60;;
50605;SDS011;36557;53.572;10.170;2022-09-16T16:18:38;789.35;;;725.53;;
50605;SDS011;36557;53.572;10.170;2022-09-16T16:21:07;730.20;;;673.33;;
50605;SDS011;36557;53.572;10.170;2022-09-16T16:23:36;888.70;;;811.55;;
50605;SDS011;36557;53.572;10.170;2022-09-16T16:26:05;765.35;;;705.90;;
50605;SDS011;36557;53.572;10.170;2022-09-16T16:28:32;662.53;;;615.10;;
50605;SDS011;36557;53.572;10.170;2022-09-16T16:31:14;704.28;;;650.10;;
50605;SDS011;36557;53.572;10.170;2022-09-16T16:33:45;734.70;;;678.85;;
50605;SDS011;36557;53.572;10.170;2022-09-16T16:36:15;781.33;;;718.33;;
50605;SDS011;36557;53.572;10.170;2022-09-16T16:38:42;787.58;;;724.58;;
50605;SDS011;36557;53.572;10.170;2022-09-16T16:41:10;689.53;;;640.83;;
50605;SDS011;36557;53.572;10.170;2022-09-16T16:43:37;682.63;;;633.75;;
50605;SDS011;36557;53.572;10.170;2022-09-16T16:46:03;742.90;;;687.53;;
50605;SDS011;36557;53.572;10.170;2022-09-16T16:48:29;809.35;;;746.35;;
50605;SDS011;36557;53.572;10.170;2022-09-16T16:50:59;842.55;;;774.88;;
50605;SDS011;36557;53.572;10.170;2022-09-16T16:53:27;825.75;;;763.55;;
50605;SDS011;36557;53.572;10.170;2022-09-16T16:55:53;809.85;;;747.95;;
50605;SDS011;36557;53.572;10.170;2022-09-16T16:58:28;773.97;;;713.65;;
50605;SDS011;36557;53.572;10.170;2022-09-16T17:00:55;741.13;;;684.97;;
50605;SDS011;36557;53.572;10.170;2022-09-16T17:03:20;797.75;;;735.40;;
50605;SDS011;36557;53.572;10.170;2022-09-16T17:05:46;779.72;;;720.33;;
50605;SDS011;36557;53.572;10.170;2022-09-16T17:08:12;807.45;;;745.40;;
50605;SDS011;36557;53.572;10.170;2022-09-16T17:10:38;781.58;;;720.95;;
50605;SDS011;36557;53.572;10.170;2022-09-16T17:13:07;771.47;;;711.28;;
50605;SDS011;36557;53.572;10.170;2022-09-16T17:15:32;770.80;;;711.83;;
50605;SDS011;36557;53.572;10.170;2022-09-16T17:17:58;767.35;;;708.75;;
50605;SDS011;36557;53.572;10.170;2022-09-16T17:20:24;834.00;;;768.45;;
50605;SDS011;36557;53.572;10.170;2022-09-16T17:22:50;826.03;;;758.92;;